Time;durP1;ratioP1;P1;durP2;ratioP2;P2;SDS_P1;SDS_P2;PMS_P1;PMS_P2;Temp;Humidity;BMP_temperature;BMP_pressure;BME280_temperature;BME280_humidity;BME280_pressure;Samples;Min_cycle;Max_cycle;Signal;HPM_P1;HPM_P2
2022/04/13 00:05:20;;;;;;;1.95;0.30;;;;;;;20.33;33.98;101108.41;16143214;19;129544;-40
2022/04/13 00:10:43;;;;;;;0.20;0.20;;;;;;;20.31;33.82;101105.06;16144411;19;129080;-39
2022/04/13 00:16:05;;;;;;;0.93;0.30;;;;;;;20.29;33.90;101119.19;16144638;19;129505;-39
2022/04/13 00:21:26;;;;;;;0.47;0.30;;;;;;;20.26;33.79;101125.25;16145509;19;130008;-40
2022/04/13 00:26:48;;;;;;;0.47;0.30;;;;;;;20.24;34.08;101128.28;16139737;19;129074;-40
2022/04/13 00:32:10;;;;;;;0.60;0.20;;;;;;;20.23;33.90;101134.94;16143654;19;130943;-40
2022/04/13 00:37:32;;;;;;;0.85;0.25;;;;;;;20.22;33.92;101143.53;16144519;19;129073;-39
2022/04/13 00:42:54;;;;;;;0.43;0.20;;;;;;;20.20;34.26;101141.00;16139625;19;131207;-40
2022/04/13 00:48:35;;;;;;;0.90;0.20;;;;;;;20.18;33.77;101137.66;16135594;19;129042;-40
2022/04/13 00:53:59;;;;;;;0.43;0.28;;;;;;;20.17;34.26;101135.09;16140024;19;129520;-39
2022/04/13 00:59:23;;;;;;;0.50;0.22;;;;;;;20.17;34.18;101140.66;16134406;19;129453;-40
2022/04/13 01:04:46;;;;;;;0.60;0.20;;;;;;;20.15;34.33;101140.91;16138488;19;130352;-39
2022/04/13 01:10:08;;;;;;;0.68;0.25;;;;;;;20.13;34.01;101143.94;16139638;19;130162;-40
2022/04/13 01:15:30;;;;;;;0.20;0.20;;;;;;;20.12;34.14;101146.97;16134322;19;129344;-41
2022/04/13 01:20:53;;;;;;;0.38;0.20;;;;;;;20.11;33.88;101156.41;16140569;19;129800;-40
2022/04/13 01:26:15;;;;;;;1.73;0.30;;;;;;;20.10;34.27;101155.56;16134160;19;130678;-39
2022/04/13 01:31:37;;;;;;;0.30;0.20;;;;;;;20.09;34.14;101153.03;16139561;19;129070;-42
2022/04/13 01:36:59;;;;;;;0.65;0.28;;;;;;;20.08;34.11;101171.63;16139293;19;129820;-40
2022/04/13 01:42:21;;;;;;;0.82;0.40;;;;;;;20.07;34.15;101178.28;16140075;19;129201;-39
2022/04/13 01:47:42;;;;;;;0.85;0.25;;;;;;;20.06;34.05;101184.09;16134858;19;128959;-40
2022/04/13 01:53:03;;;;;;;0.50;0.30;;;;;;;20.03;33.97;101188.19;16135918;19;131841;-40
2022/04/13 01:58:25;;;;;;;2.65;0.30;;;;;;;20.03;34.29;101193.75;16136913;19;129572;-39
2022/04/13 02:03:50;;;;;;;0.47;0.20;;;;;;;20.02;34.09;101196.78;16137400;19;129733;-39
2022/04/13 02:09:11;;;;;;;2.00;0.32;;;;;;;19.99;34.17;101198.97;16136754;19;129163;-41
2022/04/13 02:14:33;;;;;;;1.52;0.30;;;;;;;19.98;34.11;101202.81;16137837;19;130182;-42
2022/04/13 02:19:55;;;;;;;0.40;0.25;;;;;;;19.96;33.95;101202.19;16137690;19;129909;-38
2022/04/13 02:25:16;;;;;;;0.20;0.20;;;;;;;19.97;33.86;101209.44;16133537;19;130332;-42
2022/04/13 02:30:38;;;;;;;0.50;0.20;;;;;;;19.95;34.26;101203.28;16132857;19;129608;-39
2022/04/13 02:36:06;;;;;;;0.77;0.20;;;;;;;19.93;34.33;101211.06;16135420;19;129852;-38
2022/04/13 02:41:28;;;;;;;1.40;0.30;;;;;;;19.93;34.14;101211.06;16134839;19;129831;-39
2022/04/13 02:46:50;;;;;;;1.45;0.20;;;;;;;19.91;33.92;101213.22;16132516;19;130140;-39
2022/04/13 02:52:14;;;;;;;0.65;0.20;;;;;;;19.89;34.10;101204.31;16128348;19;130292;-39
2022/04/13 02:57:36;;;;;;;0.40;0.20;;;;;;;19.88;34.36;101213.72;16133152;19;129048;-40
2022/04/13 03:02:58;;;;;;;0.40;0.20;;;;;;;19.86;34.33;101221.44;16135207;19;130414;-39
2022/04/13 03:08:20;;;;;;;1.40;0.20;;;;;;;19.85;34.10;101203.09;16128630;19;130015;-39
2022/04/13 03:13:42;;;;;;;0.75;0.20;;;;;;;19.84;34.22;101212.50;16133400;19;130340;-39
2022/04/13 03:19:04;;;;;;;0.55;0.30;;;;;;;19.82;33.93;101198.91;16132604;19;130230;-39
2022/04/13 03:24:26;;;;;;;0.65;0.20;;;;;;;19.82;34.15;101220.25;16131583;19;129754;-38
2022/04/13 03:29:47;;;;;;;0.10;0.10;;;;;;;19.80;33.96;101216.91;16131030;19;129334;-41
2022/04/13 03:35:10;;;;;;;0.68;0.20;;;;;;;19.79;34.42;101226.31;16133170;19;130791;-40
2022/04/13 03:40:32;;;;;;;0.50;0.32;;;;;;;19.78;33.98;101225.44;16146165;19;129510;-40
2022/04/13 03:45:54;;;;;;;0.45;0.20;;;;;;;19.78;34.44;101231.00;16145602;19;130741;-40
2022/04/13 03:51:16;;;;;;;0.50;0.28;;;;;;;19.77;34.13;101222.94;16141254;19;130180;-40
2022/04/13 03:56:37;;;;;;;0.82;0.30;;;;;;;19.75;34.37;101233.44;16145329;19;129926;-39
2022/04/13 04:01:59;;;;;;;0.30;0.10;;;;;;;19.75;33.91;101241.75;16139064;19;129824;-39
2022/04/13 04:07:21;;;;;;;0.50;0.10;;;;;;;19.72;34.24;101248.66;16141972;19;129606;-42
2022/04/13 04:12:43;;;;;;;0.30;0.20;;;;;;;19.73;34.29;101260.59;16144777;19;129593;-38
2022/04/13 04:18:06;;;;;;;0.75;0.20;;;;;;;19.70;34.34;101267.50;16142652;19;130498;-42
2022/04/13 04:23:27;;;;;;;0.20;0.20;;;;;;;19.69;34.03;101282.44;16143390;19;129195;-39
2022/04/13 04:28:49;;;;;;;0.20;0.20;;;;;;;19.68;34.11;101278.00;16138695;19;130148;-39
2022/04/13 04:34:11;;;;;;;0.77;0.30;;;;;;;19.66;34.32;101282.94;16143202;19;129545;-41
2022/04/13 04:39:33;;;;;;;0.20;0.20;;;;;;;19.67;33.94;101274.38;16142084;19;129029;-38
2022/04/13 04:44:58;;;;;;;0.45;0.20;;;;;;;19.66;34.21;101280.16;16141357;19;129678;-39
2022/04/13 04:50:22;;;;;;;0.40;0.22;;;;;;;19.65;34.40;101284.88;16138961;19;129818;-39
2022/04/13 04:55:44;;;;;;;1.00;0.43;;;;;;;19.65;33.96;101289.56;16142145;19;129470;-39
2022/04/13 05:01:05;;;;;;;0.80;0.20;;;;;;;19.65;33.99;101295.97;16135497;19;130303;-39
2022/04/13 05:06:29;;;;;;;0.70;0.30;;;;;;;19.65;34.36;101295.13;16138949;19;130237;-41
2022/04/13 05:11:51;;;;;;;1.05;0.30;;;;;;;19.78;33.96;101307.91;16140314;19;128987;-39
2022/04/13 05:17:14;;;;;;;0.63;0.20;;;;;;;19.97;33.77;101306.63;16141381;19;129397;-39
2022/04/13 05:22:36;;;;;;;2.30;0.45;;;;;;;20.10;34.12;101313.88;16137971;19;128787;-38
2022/04/13 05:27:59;;;;;;;2.67;0.60;;;;;;;20.26;33.68;101334.47;16131515;19;130630;-40
2022/04/13 05:33:20;;;;;;;2.17;0.60;;;;;;;20.44;33.23;101335.34;16139016;19;128967;-39
2022/04/13 05:38:42;;;;;;;1.20;0.38;;;;;;;20.62;33.01;101339.03;16137993;19;129351;-39
2022/04/13 05:44:04;;;;;;;3.67;0.40;;;;;;;20.69;33.40;101348.03;16135212;19;129664;-39
2022/04/13 05:49:26;;;;;;;4.95;0.80;;;;;;;20.70;33.05;101358.94;16133736;19;129172;-40
2022/04/13 05:54:48;;;;;;;3.35;0.80;;;;;;;20.68;33.41;101351.91;16138713;19;129735;-40
2022/04/13 06:00:11;;;;;;;3.88;0.68;;;;;;;20.63;33.40;101355.44;16133076;19;129599;-40
2022/04/13 06:05:33;;;;;;;3.40;0.77;;;;;;;20.58;33.48;101356.19;16133482;19;128995;-40
2022/04/13 06:10:55;;;;;;;1.85;1.00;;;;;;;20.53;33.32;101371.94;16133436;19;130421;-39
2022/04/13 06:16:17;;;;;;;1.60;0.60;;;;;;;20.49;33.55;101373.53;16135170;19;129376;-40
2022/04/13 06:21:38;;;;;;;1.25;0.50;;;;;;;20.44;33.56;101388.16;16134361;19;130424;-39
2022/04/13 06:27:00;;;;;;;2.25;0.73;;;;;;;20.39;33.46;101401.97;16131194;19;129367;-40
2022/04/13 06:32:33;;;;;;;2.40;0.90;;;;;;;20.32;33.99;101407.66;16135017;19;129954;-39
2022/04/13 06:37:55;;;;;;;2.25;0.80;;;;;;;20.27;34.04;101416.75;16135337;19;129373;-40
2022/04/13 06:43:17;;;;;;;3.40;0.90;;;;;;;20.23;33.68;101417.47;16136396;19;129482;-41
2022/04/13 06:48:39;;;;;;;1.17;0.60;;;;;;;20.20;33.98;101420.75;16129670;19;129220;-39
2022/04/13 06:54:01;;;;;;;1.85;0.60;;;;;;;20.17;33.82;101438.75;16128118;19;129116;-38
2022/04/13 06:59:22;;;;;;;1.42;0.63;;;;;;;20.22;33.97;101435.22;16131670;19;129644;-40
2022/04/13 07:04:44;;;;;;;1.45;0.70;;;;;;;20.40;33.87;101437.81;16128790;19;130383;-39
2022/04/13 07:10:13;;;;;;;1.33;0.50;;;;;;;20.64;33.36;101450.81;16127498;19;129310;-39
2022/04/13 07:15:34;;;;;;;1.92;0.68;;;;;;;20.82;33.11;101461.75;16143306;19;129982;-41
2022/04/13 07:20:56;;;;;;;2.10;0.63;;;;;;;20.96;33.26;101478.16;16144587;19;129403;-40
2022/04/13 07:26:18;;;;;;;3.25;0.50;;;;;;;21.04;33.32;101475.00;16143280;19;129351;-39
2022/04/13 07:31:40;;;;;;;3.22;0.90;;;;;;;21.12;33.21;101474.56;16143915;19;129312;-40
2022/04/13 07:37:03;;;;;;;3.55;1.33;;;;;;;21.21;33.07;101486.97;16143350;19;128995;-42
2022/04/13 07:42:26;;;;;;;2.75;0.70;;;;;;;21.32;32.80;101481.59;16142116;19;130310;-40
2022/04/13 07:47:48;;;;;;;3.67;0.80;;;;;;;21.44;32.74;101490.72;16143135;19;129440;-40
2022/04/13 07:53:11;;;;;;;4.32;0.70;;;;;;;21.54;32.89;101500.38;16139188;19;129121;-39
2022/04/13 07:58:33;;;;;;;2.85;0.60;;;;;;;21.63;32.34;101505.25;16144457;19;129837;-41
2022/04/13 08:03:55;;;;;;;1.42;0.60;;;;;;;21.69;32.74;101502.56;16146993;19;129014;-39
2022/04/13 08:09:37;;;;;;;1.80;0.70;;;;;;;21.75;32.57;101496.84;16140897;19;129728;-39
2022/04/13 08:14:59;;;;;;;1.20;0.50;;;;;;;21.80;32.57;101496.91;16145728;19;129065;-40
2022/04/13 08:20:21;;;;;;;1.80;0.80;;;;;;;21.86;32.56;101505.34;16142502;19;129403;-40
2022/04/13 08:25:44;;;;;;;2.42;0.60;;;;;;;21.91;32.30;101516.59;16143341;19;129392;-40
2022/04/13 08:31:09;;;;;;;1.13;0.50;;;;;;;21.93;32.45;101526.38;16142722;19;130625;-41
2022/04/13 08:36:31;;;;;;;0.75;0.43;;;;;;;21.94;32.17;101533.63;16144754;19;129922;-39
2022/04/13 08:41:58;;;;;;;0.47;0.30;;;;;;;21.95;32.28;101534.47;16143884;19;129981;-41
2022/04/13 08:47:22;;;;;;;1.20;0.50;;;;;;;21.95;32.08;101553.97;16140633;19;129323;-39
2022/04/13 08:52:51;;;;;;;1.70;0.60;;;;;;;21.96;32.23;101570.44;16138967;19;129643;-42
2022/04/13 08:58:32;;;;;;;0.98;0.47;;;;;;;21.97;32.28;101576.84;16140634;19;129332;-42
2022/04/13 09:03:57;;;;;;;1.17;0.50;;;;;;;21.96;32.32;101584.38;16141511;19;128878;-40
2022/04/13 09:09:25;;;;;;;2.35;0.60;;;;;;;21.98;32.22;101584.09;16136024;19;130144;-39
2022/04/13 09:14:48;;;;;;;1.15;0.40;;;;;;;21.98;32.59;101590.50;16141462;19;129652;-42
2022/04/13 09:20:11;;;;;;;0.88;0.30;;;;;;;22.02;32.63;101592.78;16142043;19;128906;-39
2022/04/13 09:25:36;;;;;;;0.52;0.30;;;;;;;22.04;32.24;101593.38;16141149;19;129960;-41
2022/04/13 09:30:58;;;;;;;1.10;0.57;;;;;;;22.06;32.41;101596.78;16134454;19;130125;-39
2022/04/13 09:36:20;;;;;;;0.63;0.32;;;;;;;22.07;32.37;101601.25;16138391;19;129451;-40
2022/04/13 09:41:42;;;;;;;0.95;0.30;;;;;;;22.08;32.66;101594.59;16140298;19;129037;-39
2022/04/13 09:47:12;;;;;;;0.85;0.50;;;;;;;22.08;32.44;101612.13;16138386;19;129852;-42
2022/04/13 09:52:36;;;;;;;0.40;0.30;;;;;;;22.09;32.60;101613.00;16135904;19;129452;-40
2022/04/13 09:58:06;;;;;;;0.57;0.40;;;;;;;22.08;32.14;101623.28;16138299;19;129634;-39
2022/04/13 10:03:28;;;;;;;0.88;0.30;;;;;;;22.09;32.67;101613.81;16140243;19;129892;-40
2022/04/13 10:08:59;;;;;;;1.60;0.50;;;;;;;22.09;32.46;101624.97;16132397;19;129850;-39
2022/04/13 10:14:21;;;;;;;0.38;0.32;;;;;;;22.09;32.73;101616.59;16137468;19;129036;-39
2022/04/13 10:19:43;;;;;;;4.65;1.45;;;;;;;22.07;32.84;101616.00;16131586;19;129029;-41
2022/04/13 10:25:20;;;;;;;4.03;1.40;;;;;;;22.05;33.28;101636.88;16134711;19;128979;-39
2022/04/13 10:30:42;;;;;;;5.30;1.20;;;;;;;22.03;33.06;101637.09;16130407;19;129546;-42
2022/04/13 10:36:04;;;;;;;8.07;1.55;;;;;;;22.02;33.16;101634.59;16132372;19;130105;-39
2022/04/13 10:41:26;;;;;;;6.25;1.50;;;;;;;22.00;33.31;101646.00;16135198;19;131714;-39
2022/04/13 10:46:52;;;;;;;4.85;1.30;;;;;;;22.02;33.34;101646.59;16131329;19;129759;-39
2022/04/13 10:52:21;;;;;;;3.40;1.20;;;;;;;22.02;33.28;101652.16;16126240;19;129081;-41
2022/04/13 10:57:56;;;;;;;6.78;1.20;;;;;;;22.04;33.69;101652.72;16133214;19;130814;-42
2022/04/13 11:03:21;;;;;;;11.50;1.63;;;;;;;22.04;33.94;101671.41;16132630;19;129282;-39
2022/04/13 11:08:46;;;;;;;4.43;1.00;;;;;;;22.04;33.56;101672.22;16129926;19;130158;-40
2022/04/13 11:14:21;;;;;;;4.07;1.33;;;;;;;22.06;33.56;101675.63;16133645;19;130262;-39
2022/04/13 11:19:43;;;;;;;3.80;1.50;;;;;;;22.06;33.56;101675.63;16133064;19;129633;-39
2022/04/13 11:25:05;;;;;;;6.18;1.80;;;;;;;22.09;33.69;101677.91;16132621;19;132494;-40
2022/04/13 11:30:27;;;;;;;6.22;1.65;;;;;;;22.11;33.87;101678.50;16126651;19;129445;-39
2022/04/13 11:35:54;;;;;;;10.18;1.98;;;;;;;22.15;33.86;101672.44;16128833;19;130301;-41
2022/04/13 11:41:17;;;;;;;6.05;1.77;;;;;;;22.15;33.83;101672.44;16127073;19;129037;-41
2022/04/13 11:46:39;;;;;;;8.05;1.70;;;;;;;22.17;34.19;101681.38;16127932;19;129208;-45
2022/04/13 11:52:41;;;;;;;2.50;1.27;;;;;;;22.21;34.10;101677.03;16125546;19;129397;-40
2022/04/13 11:58:08;;;;;;;3.88;1.50;;;;;;;22.26;34.19;101663.19;16134546;19;131696;-40
2022/04/13 12:03:38;;;;;;;8.30;1.77;;;;;;;22.25;34.29;101669.84;16145101;19;130490;-42
2022/04/13 12:09:02;;;;;;;4.60;1.27;;;;;;;22.25;34.06;101664.28;16142146;19;129463;-42
2022/04/13 12:14:30;;;;;;;3.20;1.38;;;;;;;22.28;34.26;101672.09;16141757;19;129196;-42
2022/04/13 12:19:51;;;;;;;3.45;1.40;;;;;;;22.31;34.13;101673.56;16145069;19;129927;-41
2022/04/13 12:25:16;;;;;;;6.68;1.33;;;;;;;22.36;34.38;101668.06;16144795;19;131990;-41
2022/04/13 12:30:38;;;;;;;3.00;1.40;;;;;;;22.40;34.26;101675.66;16139191;19;130167;-41
2022/04/13 12:36:03;;;;;;;2.00;0.93;;;;;;;22.45;33.98;101677.72;16143925;19;129637;-40
2022/04/13 12:41:28;;;;;;;2.87;1.20;;;;;;;22.48;34.20;101693.06;16143738;19;130288;-46
2022/04/13 12:46:50;;;;;;;2.10;0.80;;;;;;;22.48;33.74;101713.41;16142370;19;130933;-42
2022/04/13 12:52:12;;;;;;;3.47;1.23;;;;;;;22.48;34.16;101734.91;16138884;19;128935;-42
2022/04/13 12:57:34;;;;;;;2.95;0.90;;;;;;;22.46;33.80;101737.09;16141844;19;129996;-39
2022/04/13 13:02:56;;;;;;;3.05;1.05;;;;;;;22.45;33.71;101739.03;16140289;19;129446;-43
2022/04/13 13:08:18;;;;;;;1.38;0.70;;;;;;;22.42;33.99;101736.75;16136779;19;129804;-40
2022/04/13 13:13:40;;;;;;;1.77;0.60;;;;;;;22.41;33.92;101730.31;16139481;19;129504;-41
2022/04/13 13:19:14;;;;;;;2.55;0.55;;;;;;;22.42;34.04;101718.06;16137151;19;131838;-41
2022/04/13 13:25:03;;;;;;;1.20;0.63;;;;;;;22.38;34.11;101714.13;16140404;19;130356;-42
2022/04/13 13:30:26;;;;;;;0.88;0.60;;;;;;;22.32;34.00;101709.53;16135884;19;129714;-39
2022/04/13 13:35:48;;;;;;;1.02;0.60;;;;;;;22.30;33.98;101706.16;16138880;19;129504;-43
2022/04/13 13:41:11;;;;;;;2.53;0.60;;;;;;;22.28;34.28;101699.97;16137869;19;129292;-40
2022/04/13 13:46:32;;;;;;;1.20;0.52;;;;;;;22.23;34.29;101697.97;16139454;19;129225;-42
2022/04/13 13:51:55;;;;;;;1.85;0.63;;;;;;;22.21;34.34;101696.53;16130704;19;129784;-41
2022/04/13 13:57:16;;;;;;;1.27;0.55;;;;;;;22.19;34.78;101701.47;16137816;19;129869;-40
2022/04/13 14:02:38;;;;;;;3.00;0.60;;;;;;;22.21;34.55;101702.09;16129544;19;130081;-43
2022/04/13 14:08:06;;;;;;;1.85;0.75;;;;;;;22.27;34.63;101710.31;16135534;19;130831;-43
2022/04/13 14:13:28;;;;;;;1.70;0.57;;;;;;;22.34;34.45;101715.72;16129013;19;130300;-41
2022/04/13 14:18:50;;;;;;;0.95;0.40;;;;;;;22.38;34.71;101711.34;16138304;19;129842;-42
2022/04/13 14:24:12;;;;;;;0.95;0.70;;;;;;;22.41;34.17;101716.38;16135147;19;129497;-42
2022/04/13 14:29:34;;;;;;;2.28;0.80;;;;;;;22.39;34.34;101718.59;16131137;19;129985;-43
2022/04/13 14:34:57;;;;;;;0.90;0.50;;;;;;;22.34;34.26;101721.28;16134756;19;129028;-41
2022/04/13 14:40:20;;;;;;;1.02;0.63;;;;;;;22.25;34.44;101714.44;16135120;19;129576;-43
2022/04/13 14:45:44;;;;;;;1.20;0.50;;;;;;;22.16;34.73;101702.81;16131925;19;129046;-42
2022/04/13 14:51:06;;;;;;;1.00;0.60;;;;;;;22.13;34.56;101709.75;16127569;19;130069;-41
2022/04/13 14:56:28;;;;;;;1.92;0.60;;;;;;;22.07;34.86;101713.53;16132380;19;129399;-43
2022/04/13 15:01:50;;;;;;;0.85;0.47;;;;;;;22.04;35.17;101708.47;16126478;19;129883;-43
2022/04/13 15:07:13;;;;;;;1.17;0.45;;;;;;;22.00;35.08;101710.06;16131169;19;129794;-42
2022/04/13 15:12:35;;;;;;;2.25;0.52;;;;;;;21.98;35.24;101704.72;16132669;19;129144;-41
2022/04/13 15:17:57;;;;;;;1.10;0.38;;;;;;;22.04;34.84;101702.88;16131647;19;129589;-41
2022/04/13 15:23:19;;;;;;;0.77;0.50;;;;;;;22.12;34.92;101702.50;16131358;19;130504;-41
2022/04/13 15:28:41;;;;;;;1.13;0.38;;;;;;;22.22;34.82;101712.16;16126214;19;131181;-42
2022/04/13 15:34:03;;;;;;;1.35;0.50;;;;;;;22.28;34.80;101714.78;16134422;19;128896;-40
2022/04/13 15:39:24;;;;;;;4.43;0.90;;;;;;;22.33;34.74;101719.59;16146691;19;129268;-43
2022/04/13 15:44:46;;;;;;;1.25;0.63;;;;;;;22.38;34.83;101716.03;16146186;19;129899;-41
2022/04/13 15:50:09;;;;;;;2.03;0.63;;;;;;;22.41;34.91;101721.13;16143383;19;129132;-42
2022/04/13 15:55:31;;;;;;;3.53;0.80;;;;;;;22.39;34.88;101717.75;16144157;19;130364;-45
2022/04/13 16:00:52;;;;;;;3.75;0.95;;;;;;;22.38;34.74;101725.28;16140074;19;129179;-42
2022/04/13 16:06:14;;;;;;;3.28;0.85;;;;;;;22.36;34.98;101713.53;16145277;19;129555;-41
2022/04/13 16:11:36;;;;;;;2.83;0.73;;;;;;;22.35;34.98;101711.81;16139973;19;129203;-43
2022/04/13 16:17:01;;;;;;;1.65;0.75;;;;;;;22.35;34.91;101709.03;16143657;19;129019;-44
2022/04/13 16:22:23;;;;;;;1.83;0.90;;;;;;;22.35;35.16;101720.19;16142921;19;129699;-41
2022/04/13 16:27:45;;;;;;;1.00;0.60;;;;;;;22.36;34.85;101723.81;16142508;19;129698;-42
2022/04/13 16:33:11;;;;;;;1.83;0.70;;;;;;;22.36;34.96;101730.25;16140296;19;129351;-44
2022/04/13 16:38:34;;;;;;;1.33;0.40;;;;;;;22.37;34.63;101722.72;16140055;19;129650;-42
2022/04/13 16:43:59;;;;;;;1.30;0.55;;;;;;;22.36;34.98;101729.38;16141662;19;129883;-43
2022/04/13 16:49:21;;;;;;;3.03;0.90;;;;;;;22.40;35.35;101737.00;16125991;19;130086;-39
2022/04/13 16:54:43;;;;;;;3.90;0.80;;;;;;;22.46;35.05;101735.16;16133281;19;129619;-41
2022/04/13 17:00:06;;;;;;;1.02;0.70;;;;;;;22.49;35.04;101733.81;16135847;19;130503;-40
2022/04/13 17:05:27;;;;;;;2.22;0.60;;;;;;;22.48;35.21;101743.25;16139589;19;132038;-39
2022/04/13 17:10:50;;;;;;;2.70;0.57;;;;;;;22.42;35.42;101740.38;16136088;19;130812;-40
2022/04/13 17:16:11;;;;;;;6.05;0.98;;;;;;;22.36;35.94;101735.81;16139308;19;129029;-40
2022/04/13 17:21:34;;;;;;;5.15;1.00;;;;;;;22.31;36.01;101744.09;16140293;19;129416;-39
2022/04/13 17:26:55;;;;;;;2.42;0.80;;;;;;;22.25;35.82;101754.28;16134722;19;129991;-40
2022/04/13 17:32:18;;;;;;;5.10;1.10;;;;;;;22.19;36.29;101763.66;16134751;19;130059;-40
2022/04/13 17:37:40;;;;;;;3.45;0.80;;;;;;;22.16;36.28;101774.44;16138003;19;130789;-41
2022/04/13 17:43:01;;;;;;;5.20;0.80;;;;;;;22.10;36.63;101777.13;16138524;19;129549;-40
2022/04/13 17:48:24;;;;;;;3.33;0.55;;;;;;;22.07;36.48;101774.84;16137597;19;130250;-39
2022/04/13 17:53:46;;;;;;;19.45;1.60;;;;;;;22.03;36.81;101779.22;16134916;19;130558;-40
2022/04/13 18:14:41;;;;;;;2.85;0.75;;;;;;;19.55;41.85;101820.31;16212227;19;129284;-45
2022/04/13 18:20:04;;;;;;;3.88;0.80;;;;;;;20.23;40.54;101835.06;16209792;19;130325;-49
2022/04/13 18:25:26;;;;;;;3.97;0.68;;;;;;;20.66;39.62;101835.94;16211903;19;129700;-44
2022/04/13 18:30:52;;;;;;;2.45;0.85;;;;;;;20.95;39.21;101824.16;16208767;19;129092;-47
2022/04/13 18:36:19;;;;;;;3.78;0.90;;;;;;;21.15;38.84;101821.88;16209648;19;129273;-45
2022/04/13 18:41:40;;;;;;;3.20;0.70;;;;;;;21.30;38.27;101821.38;16209271;19;131642;-53
2022/04/13 18:47:04;;;;;;;3.25;1.10;;;;;;;21.45;37.93;101817.25;16208349;19;129987;-52
2022/04/13 18:52:25;;;;;;;2.15;0.70;;;;;;;21.54;37.76;101828.91;16204138;19;130248;-47
2022/04/13 18:57:47;;;;;;;3.63;0.90;;;;;;;21.67;37.47;101850.91;16209006;19;129578;-47
2022/04/13 19:03:09;;;;;;;0.63;0.50;;;;;;;21.82;37.46;101853.19;16208047;19;132603;-47
2022/04/13 19:08:38;;;;;;;3.58;0.82;;;;;;;22.05;36.88;101852.25;16207319;19;130400;-50
2022/04/13 19:13:59;;;;;;;18.63;1.33;;;;;;;22.22;36.56;101857.09;16200347;19;130024;-49
2022/04/13 19:19:21;;;;;;;4.78;0.95;;;;;;;22.38;36.44;101861.88;16206137;19;130030;-49
2022/04/13 19:24:44;;;;;;;6.70;0.90;;;;;;;22.53;36.21;101868.81;16155324;19;129661;-53
2022/04/13 19:30:06;;;;;;;7.78;0.90;;;;;;;22.71;36.08;101867.75;16136711;19;130105;-48
2022/04/13 19:35:28;;;;;;;3.55;0.63;;;;;;;22.88;35.85;101871.41;16142515;19;129622;-51
2022/04/13 19:40:49;;;;;;;5.03;0.85;;;;;;;23.04;35.39;101899.63;16143927;19;129586;-53
2022/04/13 19:46:11;;;;;;;5.97;0.75;;;;;;;23.17;35.40;101904.00;16142491;19;129282;-53
2022/04/13 19:51:33;;;;;;;5.15;0.80;;;;;;;23.28;35.19;101908.66;16138805;19;129590;-50
2022/04/13 19:56:55;;;;;;;3.35;0.75;;;;;;;23.35;34.93;101909.34;16141245;19;129269;-52
2022/04/13 20:02:17;;;;;;;5.47;0.57;;;;;;;23.42;35.03;101908.31;16140602;19;129703;-50
2022/04/13 20:07:39;;;;;;;5.57;0.90;;;;;;;23.45;35.16;101918.97;16139793;19;129962;-52
2022/04/13 20:13:03;;;;;;;11.93;0.80;;;;;;;23.49;35.25;101922.97;16136788;19;129444;-53
2022/04/13 20:18:26;;;;;;;5.32;0.95;;;;;;;23.53;35.04;101931.66;16141368;19;130239;-50
2022/04/13 20:23:48;;;;;;;7.90;0.73;;;;;;;23.56;34.99;101922.78;16131542;19;129718;-52
2022/04/13 20:29:10;;;;;;;9.95;1.00;;;;;;;23.57;34.96;101916.94;16139624;19;129402;-47
2022/04/13 20:34:33;;;;;;;13.10;1.08;;;;;;;23.55;35.05;101930.28;16127765;19;131267;-51
2022/04/13 20:39:54;;;;;;;4.70;0.70;;;;;;;23.50;35.04;101933.03;16138839;19;129138;-49
2022/04/13 20:45:16;;;;;;;5.00;0.90;;;;;;;23.41;35.17;101935.41;16135645;19;129117;-53
2022/04/13 20:50:40;;;;;;;4.95;0.60;;;;;;;23.31;35.40;101946.41;16135143;19;130141;-53
2022/04/13 20:56:01;;;;;;;4.72;0.70;;;;;;;23.18;35.42;101948.44;16131539;19;128905;-48
2022/04/13 21:01:23;;;;;;;4.07;0.55;;;;;;;23.09;35.87;101949.09;16134938;19;128944;-52
2022/04/13 21:06:45;;;;;;;4.43;0.77;;;;;;;22.99;35.80;101950.59;16135214;19;129844;-50
2022/04/13 21:12:08;;;;;;;4.53;0.60;;;;;;;22.91;35.87;101947.38;16130698;19;130080;-51
2022/04/13 21:17:31;;;;;;;10.77;1.13;;;;;;;22.80;36.19;101947.16;16134650;19;130776;-50
2022/04/13 21:22:53;;;;;;;6.68;1.23;;;;;;;22.69;35.67;101951.69;16133707;19;129178;-50
2022/04/13 21:28:14;;;;;;;15.82;1.42;;;;;;;22.61;35.87;101954.88;16127363;19;129437;-48
2022/04/13 21:33:36;;;;;;;9.90;1.20;;;;;;;22.51;35.94;101960.25;16128195;19;129755;-48
2022/04/13 21:38:59;;;;;;;8.60;1.30;;;;;;;22.40;36.13;101954.44;16132001;19;129282;-49
2022/04/13 21:44:21;;;;;;;7.32;1.13;;;;;;;22.34;36.66;101954.63;16128929;19;130985;-51
2022/04/13 21:49:43;;;;;;;4.90;1.02;;;;;;;22.23;36.63;101953.56;16130677;19;129441;-49
2022/04/13 21:55:05;;;;;;;4.55;1.10;;;;;;;22.16;36.83;101962.00;16127585;19;130051;-51
2022/04/13 22:00:39;;;;;;;6.50;0.98;;;;;;;22.10;36.43;101949.91;16127605;19;131664;-53
2022/04/13 22:06:01;;;;;;;5.38;1.02;;;;;;;22.01;36.67;101953.31;16124133;19;129788;-51
2022/04/13 22:11:27;;;;;;;5.88;0.98;;;;;;;21.93;36.82;101949.81;16126277;19;129199;-51
2022/04/13 22:16:48;;;;;;;3.75;1.00;;;;;;;21.87;36.59;101950.78;16131160;19;129302;-47
2022/04/13 22:22:10;;;;;;;6.10;0.75;;;;;;;21.81;36.74;101952.59;16129848;19;130448;-48
2022/04/13 22:27:32;;;;;;;4.80;1.00;;;;;;;21.77;36.91;101956.13;16131214;19;129659;-49
2022/04/13 22:32:54;;;;;;;6.50;0.98;;;;;;;21.71;36.91;101952.38;16132944;19;129548;-50
2022/04/13 22:38:15;;;;;;;2.20;0.52;;;;;;;21.66;37.13;101955.06;16131487;19;130098;-49
2022/04/13 22:43:37;;;;;;;3.13;0.80;;;;;;;21.63;37.11;101953.56;16129133;19;129990;-50
2022/04/13 22:48:59;;;;;;;1.80;0.50;;;;;;;21.60;36.64;101962.41;16130042;19;129922;-52
2022/04/13 22:54:21;;;;;;;3.10;0.70;;;;;;;21.57;36.88;101959.25;16125799;19;130980;-50
2022/04/13 22:59:44;;;;;;;1.80;0.82;;;;;;;21.52;36.85;101960.84;16140380;19;129525;-48
2022/04/13 23:05:06;;;;;;;2.40;0.77;;;;;;;21.50;37.08;101951.03;16140407;19;129410;-47
2022/04/13 23:10:28;;;;;;;2.80;0.50;;;;;;;21.48;36.71;101954.03;16143715;19;129330;-48
2022/04/13 23:15:49;;;;;;;1.25;0.50;;;;;;;21.44;36.89;101954.75;16145293;19;130398;-53
2022/04/13 23:21:11;;;;;;;1.38;0.60;;;;;;;21.41;36.96;101960.78;16143895;19;129837;-51
2022/04/13 23:26:33;;;;;;;3.75;0.70;;;;;;;21.37;37.08;101960.44;16144807;19;131391;-50
2022/04/13 23:31:54;;;;;;;1.27;0.57;;;;;;;21.35;37.07;101965.38;16145411;19;128967;-50
2022/04/13 23:37:17;;;;;;;2.53;0.50;;;;;;;21.32;36.90;101960.28;16143788;19;129365;-47
2022/04/13 23:42:39;;;;;;;0.75;0.40;;;;;;;21.30;36.88;101952.19;16140502;19;129189;-51
2022/04/13 23:48:00;;;;;;;0.70;0.40;;;;;;;21.28;36.65;101953.53;16141149;19;130346;-48
2022/04/13 23:53:22;;;;;;;2.28;0.60;;;;;;;21.24;37.09;101941.16;16140973;19;131267;-49
2022/04/13 23:58:44;;;;;;;1.13;0.60;;;;;;;21.21;36.95;101937.78;16136502;19;131469;-48
